Time;durP1;ratioP1;P1;durP2;ratioP2;P2;SDS_P1;SDS_P2;PMS_P1;PMS_P2;Temp;Humidity;BMP_temperature;BMP_pressure;BME280_temperature;BME280_humidity;BME280_pressure;Samples;Min_cycle;Max_cycle;Signal;HPM_P1;HPM_P2
2023/05/05 00:00:53;;;;;;;5.07;4.03;;;;;;;10.51;100.00;101659.72;4996376;28;20499;-78
2023/05/05 00:03:21;;;;;;;8.23;4.80;;;;;;;10.46;100.00;101655.25;4968259;28;20056;-77
2023/05/05 00:05:48;;;;;;;9.95;5.18;;;;;;;10.44;100.00;101651.69;4972203;28;20064;-79
2023/05/05 00:08:16;;;;;;;10.85;5.50;;;;;;;10.41;100.00;101641.09;5000461;28;20072;-79
2023/05/05 00:10:45;;;;;;;8.13;5.22;;;;;;;10.38;100.00;101643.66;4976030;28;20042;-77
2023/05/05 00:13:13;;;;;;;8.80;4.68;;;;;;;10.36;100.00;101637.47;5010370;28;20052;-78
2023/05/05 00:15:42;;;;;;;9.98;5.07;;;;;;;10.35;100.00;101636.59;4994490;28;20037;-77
2023/05/05 00:18:11;;;;;;;8.30;5.15;;;;;;;10.34;100.00;101629.59;4956711;28;20402;-79
2023/05/05 00:20:38;;;;;;;7.38;4.13;;;;;;;10.34;100.00;101633.09;5006840;28;20073;-76
2023/05/05 00:23:06;;;;;;;10.10;4.47;;;;;;;10.36;100.00;101629.59;4979457;28;20053;-79
2023/05/05 00:25:33;;;;;;;8.50;5.05;;;;;;;10.36;100.00;101635.75;4977411;28;20804;-78
2023/05/05 00:28:00;;;;;;;12.52;5.07;;;;;;;10.34;100.00;101622.56;5005319;28;20054;-78
2023/05/05 00:30:28;;;;;;;12.25;4.85;;;;;;;10.34;100.00;101621.69;5037051;28;20048;-77
2023/05/05 00:32:56;;;;;;;7.25;5.10;;;;;;;10.30;100.00;101611.91;4984838;28;20388;-77
2023/05/05 00:35:23;;;;;;;8.45;5.07;;;;;;;10.31;100.00;101616.34;5019679;28;20046;-77
2023/05/05 00:37:51;;;;;;;8.73;4.40;;;;;;;10.30;100.00;101610.19;5000147;28;20053;-77
2023/05/05 00:40:19;;;;;;;8.23;4.75;;;;;;;10.28;100.00;101606.63;4998928;28;20049;-77
2023/05/05 00:42:51;;;;;;;10.63;5.13;;;;;;;10.28;100.00;101601.34;4992427;28;20395;-77
2023/05/05 00:45:19;;;;;;;10.25;4.72;;;;;;;10.26;100.00;101596.91;5025575;28;20394;-77
2023/05/05 00:47:50;;;;;;;14.10;6.60;;;;;;;10.27;100.00;101606.59;4974472;28;20431;-77
2023/05/05 00:50:25;;;;;;;8.93;4.90;;;;;;;10.24;100.00;101609.16;4993785;28;20495;-78
2023/05/05 00:53:03;;;;;;;11.50;4.70;;;;;;;10.23;100.00;101599.50;5010283;28;20119;-77
2023/05/05 00:55:32;;;;;;;8.23;4.47;;;;;;;10.23;100.00;101596.88;4972274;28;20060;-77
2023/05/05 00:58:04;;;;;;;7.78;4.70;;;;;;;10.21;100.00;101598.56;4994829;28;20519;-78
2023/05/05 01:00:33;;;;;;;8.68;4.85;;;;;;;10.20;100.00;101586.28;4992361;28;20052;-79
2023/05/05 01:03:00;;;;;;;11.05;5.13;;;;;;;10.20;100.00;101599.44;5011866;28;20041;-79
2023/05/05 01:05:40;;;;;;;7.90;4.53;;;;;;;10.18;100.00;101590.63;4971002;28;20052;-79
2023/05/05 01:08:26;;;;;;;8.90;4.28;;;;;;;10.17;100.00;101587.13;5013083;28;21018;-79
2023/05/05 01:11:06;;;;;;;7.13;4.35;;;;;;;10.17;100.00;101588.84;5026573;28;20042;-78
2023/05/05 01:13:41;;;;;;;11.48;4.68;;;;;;;10.16;100.00;101572.16;5002944;28;20041;-76
2023/05/05 01:16:17;;;;;;;12.60;5.18;;;;;;;10.15;100.00;101576.56;5021393;28;20053;-76
2023/05/05 01:19:04;;;;;;;8.25;4.57;;;;;;;10.14;100.00;101574.75;4970561;28;20045;-77
2023/05/05 01:21:42;;;;;;;7.55;4.25;;;;;;;10.12;100.00;101575.63;5008493;28;20053;-77
2023/05/05 01:24:21;;;;;;;9.18;4.85;;;;;;;10.10;100.00;101572.06;5021719;28;20419;-77
2023/05/05 01:27:26;;;;;;;12.57;4.88;;;;;;;10.09;100.00;101563.28;4979179;28;20049;-78
2023/05/05 01:30:25;;;;;;;6.28;4.53;;;;;;;10.07;100.00;101578.16;5025352;28;20060;-77
2023/05/05 01:32:59;;;;;;;12.55;4.72;;;;;;;10.04;100.00;101549.16;5009027;28;20376;-77
2023/05/05 01:35:43;;;;;;;12.25;4.57;;;;;;;10.03;100.00;101560.53;4970549;28;20049;-77
2023/05/05 01:38:16;;;;;;;9.90;4.60;;;;;;;10.02;100.00;101549.97;5022482;28;20056;-77
2023/05/05 01:41:00;;;;;;;8.25;4.35;;;;;;;10.00;100.00;101539.44;5000326;28;20041;-77
2023/05/05 01:43:32;;;;;;;8.75;4.30;;;;;;;10.00;100.00;101555.25;4996688;28;20045;-77
2023/05/05 01:46:01;;;;;;;10.90;4.50;;;;;;;9.98;100.00;101551.69;4992160;28;20053;-78
2023/05/05 01:48:29;;;;;;;15.52;5.30;;;;;;;9.98;100.00;101545.53;5005320;28;20061;-76
2023/05/05 01:51:01;;;;;;;9.80;4.60;;;;;;;9.97;100.00;101543.75;4952806;28;20056;-78
2023/05/05 01:53:30;;;;;;;8.52;4.35;;;;;;;9.95;100.00;101525.31;5005910;28;20073;-78
2023/05/05 01:56:03;;;;;;;11.55;4.15;;;;;;;9.92;100.00;101526.16;5006996;28;20053;-77
2023/05/05 01:58:34;;;;;;;7.88;4.63;;;;;;;9.91;100.00;101531.38;4973252;28;20049;-76
2023/05/05 02:01:02;;;;;;;16.63;4.32;;;;;;;9.86;100.00;101518.13;5025014;28;20049;-78
2023/05/05 02:03:36;;;;;;;7.50;4.18;;;;;;;9.85;100.00;101534.78;4976755;28;20629;-77
2023/05/05 02:06:06;;;;;;;7.47;4.13;;;;;;;9.85;100.00;101533.88;4993344;28;20057;-77
2023/05/05 02:08:36;;;;;;;8.27;4.05;;;;;;;9.83;100.00;101536.53;4964571;28;20061;-78
2023/05/05 02:11:05;;;;;;;14.40;4.60;;;;;;;9.84;100.00;101540.03;5038328;28;20058;-77
2023/05/05 02:13:32;;;;;;;6.43;3.70;;;;;;;9.83;100.00;101539.16;5013562;28;20034;-77
2023/05/05 02:16:03;;;;;;;7.07;3.85;;;;;;;9.82;100.00;101523.31;5011717;28;20046;-77
2023/05/05 02:18:34;;;;;;;;;;;;;;;9.81;100.00;101517.19;5005607;28;20050;-77
2023/05/05 02:21:02;;;;;;;10.30;4.07;;;;;;;9.81;100.00;101524.16;5015586;28;19929;-78
2023/05/05 02:23:30;;;;;;;8.70;4.70;;;;;;;9.80;100.00;101519.78;4940930;28;20664;-78
2023/05/05 02:26:06;;;;;;;9.48;4.85;;;;;;;9.77;100.00;101517.97;5025210;28;20037;-77
2023/05/05 02:28:47;;;;;;;9.50;4.20;;;;;;;9.76;100.00;101518.84;4996227;28;20049;-78
2023/05/05 02:31:21;;;;;;;12.32;4.32;;;;;;;9.73;100.00;101514.41;5016426;28;20037;-78
2023/05/05 02:33:50;;;;;;;10.35;4.00;;;;;;;9.72;100.00;101515.25;5017940;28;20041;-78
2023/05/05 02:36:25;;;;;;;12.15;5.35;;;;;;;9.72;100.00;101519.66;5016658;28;20057;-77
2023/05/05 02:39:03;;;;;;;13.60;4.70;;;;;;;9.69;100.00;101511.69;4986261;28;20507;-78
2023/05/05 02:41:38;;;;;;;9.20;4.93;;;;;;;9.68;100.00;101512.56;4991171;28;20061;-78
2023/05/05 02:44:15;;;;;;;10.70;4.60;;;;;;;9.67;100.00;101497.63;5046387;28;20061;-78
2023/05/05 02:46:43;;;;;;;12.48;5.20;;;;;;;9.67;100.00;101502.88;5028418;28;20049;-78
2023/05/05 02:49:11;;;;;;;8.90;4.75;;;;;;;9.66;100.00;101507.28;5029431;28;20065;-78
2023/05/05 02:51:39;;;;;;;9.23;4.65;;;;;;;9.66;100.00;101507.28;5031728;28;20075;-78
2023/05/05 02:54:15;;;;;;;8.98;4.70;;;;;;;9.66;100.00;101499.38;4972363;28;20539;-77
2023/05/05 02:56:52;;;;;;;13.00;4.70;;;;;;;9.65;100.00;101500.22;5024125;28;20061;-77
2023/05/05 02:59:32;;;;;;;11.40;5.22;;;;;;;9.66;100.00;101493.22;5020799;28;20049;-77
2023/05/05 03:02:15;;;;;;;10.20;5.13;;;;;;;9.67;100.00;101502.88;4999145;28;20060;-77
2023/05/05 03:05:08;;;;;;;11.50;4.72;;;;;;;9.66;100.00;101511.63;5049553;28;20041;-77
2023/05/05 03:07:53;;;;;;;9.77;5.22;;;;;;;9.67;100.00;101510.78;4998234;28;20837;-77
2023/05/05 03:10:33;;;;;;;;;;;;;;;9.68;100.00;101494.16;4982993;28;20521;-77
2023/05/05 03:13:03;;;;;;;9.73;5.10;;;;;;;9.67;100.00;101503.75;5041208;28;19924;-78
2023/05/05 03:15:48;;;;;;;9.07;4.47;;;;;;;9.65;100.00;101500.22;5002681;28;20054;-78
2023/05/05 03:18:21;;;;;;;6.55;4.35;;;;;;;9.63;100.00;101488.78;4995898;28;20046;-77
2023/05/05 03:20:56;;;;;;;7.78;4.78;;;;;;;9.64;100.00;101487.94;5029718;28;20125;-77
2023/05/05 03:23:23;;;;;;;11.50;4.95;;;;;;;9.65;100.00;101496.72;5009591;28;20045;-78
2023/05/05 03:25:56;;;;;;;9.70;4.75;;;;;;;9.65;100.00;101497.59;4963473;28;20046;-78
2023/05/05 03:28:33;;;;;;;7.20;4.90;;;;;;;9.65;100.00;101501.97;5014340;28;20061;-78
2023/05/05 03:31:06;;;;;;;10.25;5.18;;;;;;;9.63;100.00;101491.41;4994589;28;20046;-77
2023/05/05 03:33:45;;;;;;;12.18;4.55;;;;;;;9.60;100.00;101485.22;5004619;28;20049;-78
2023/05/05 03:36:12;;;;;;;7.82;4.88;;;;;;;9.58;100.00;101487.81;5013215;28;20411;-78
2023/05/05 03:38:40;;;;;;;12.35;4.75;;;;;;;9.56;100.00;101493.06;5025581;28;20057;-78
2023/05/05 03:41:10;;;;;;;10.88;4.88;;;;;;;9.56;100.00;101492.16;4938812;28;20046;-77
2023/05/05 03:43:40;;;;;;;9.80;4.97;;;;;;;9.56;100.00;101502.69;4984191;28;20049;-78
2023/05/05 03:46:09;;;;;;;9.15;5.05;;;;;;;9.54;100.00;101515.81;4992969;28;20053;-77
2023/05/05 03:48:36;;;;;;;10.40;4.88;;;;;;;9.54;100.00;101507.03;5002047;28;20054;-77
2023/05/05 03:51:04;;;;;;;6.30;4.45;;;;;;;9.54;100.00;101512.31;4979698;28;20507;-78
2023/05/05 03:53:34;;;;;;;12.98;5.05;;;;;;;9.53;100.00;101510.56;4992668;28;20517;-78
2023/05/05 03:56:05;;;;;;;18.63;5.30;;;;;;;9.51;100.00;101518.41;5001389;28;20049;-78
2023/05/05 03:58:32;;;;;;;10.60;4.60;;;;;;;9.51;100.00;101536.81;4973403;28;20063;-77
2023/05/05 04:01:00;;;;;;;7.00;4.65;;;;;;;9.48;100.00;101533.25;4988297;28;20046;-78
2023/05/05 04:03:28;;;;;;;5.40;4.13;;;;;;;9.48;100.00;101533.25;4998616;28;20058;-78
2023/05/05 04:05:55;;;;;;;7.05;4.43;;;;;;;9.47;100.00;101544.59;5025122;28;20054;-78
2023/05/05 04:08:23;;;;;;;7.65;3.95;;;;;;;9.46;100.00;101543.72;5000931;28;20049;-78
2023/05/05 04:10:52;;;;;;;7.25;3.85;;;;;;;9.47;100.00;101552.50;5041150;28;20073;-78
2023/05/05 04:13:20;;;;;;;7.32;3.75;;;;;;;9.47;100.00;101556.03;4952970;28;20041;-77
2023/05/05 04:15:48;;;;;;;5.68;4.03;;;;;;;9.46;100.00;101549.00;4992293;28;20050;-77
2023/05/05 04:18:17;;;;;;;8.70;3.72;;;;;;;9.47;100.00;101556.03;4984644;28;20046;-77
2023/05/05 04:20:45;;;;;;;6.43;3.92;;;;;;;9.50;100.00;101563.09;5012838;28;20060;-78
2023/05/05 04:23:12;;;;;;;8.70;4.55;;;;;;;9.51;100.00;101576.28;5007431;28;20056;-77
2023/05/05 04:25:42;;;;;;;11.30;3.80;;;;;;;9.53;100.00;101565.81;5008889;28;20052;-77
2023/05/05 04:28:11;;;;;;;8.00;4.18;;;;;;;9.56;100.00;101582.53;4968936;28;20049;-77
2023/05/05 04:30:39;;;;;;;6.22;3.85;;;;;;;9.59;100.00;101589.59;5024875;28;20049;-77
2023/05/05 04:33:07;;;;;;;8.88;4.28;;;;;;;9.62;100.00;101597.56;4977087;28;20057;-77
2023/05/05 04:35:34;;;;;;;11.55;4.50;;;;;;;9.64;100.00;101590.56;5004465;28;20054;-78
2023/05/05 04:38:02;;;;;;;5.85;3.95;;;;;;;9.68;100.00;101597.66;4979406;28;20426;-78
2023/05/05 04:40:30;;;;;;;7.07;4.40;;;;;;;9.72;100.00;101602.13;4984913;28;20045;-77
2023/05/05 04:42:59;;;;;;;11.32;7.25;;;;;;;9.80;100.00;101618.06;4941531;28;20049;-78
2023/05/05 04:45:28;;;;;;;11.30;4.43;;;;;;;9.87;100.00;101619.06;4986214;28;20056;-78
2023/05/05 04:47:55;;;;;;;8.68;4.10;;;;;;;9.94;100.00;101613.03;5009547;28;20054;-77
2023/05/05 04:50:23;;;;;;;6.03;4.05;;;;;;;10.01;100.00;101616.69;4991930;28;20041;-77
2023/05/05 04:52:51;;;;;;;6.65;3.92;;;;;;;10.06;100.00;101610.63;4995093;28;20057;-78
2023/05/05 04:55:19;;;;;;;7.10;3.97;;;;;;;10.09;100.00;101608.06;4968487;28;20050;-78
2023/05/05 04:57:46;;;;;;;5.28;3.38;;;;;;;10.12;100.00;101613.38;4990492;28;20148;-78
2023/05/05 05:00:14;;;;;;;6.00;4.05;;;;;;;10.13;100.00;101619.50;5000937;28;20072;-77
2023/05/05 05:02:42;;;;;;;12.15;4.47;;;;;;;10.11;100.00;101618.59;5011159;28;20057;-78
2023/05/05 05:05:10;;;;;;;10.82;5.25;;;;;;;10.10;100.00;101619.47;4987692;28;20041;-78
2023/05/05 05:07:38;;;;;;;9.75;4.15;;;;;;;10.10;100.00;101630.00;5022142;28;20115;-78
2023/05/05 05:10:07;;;;;;;8.25;4.22;;;;;;;10.32;100.00;101621.66;4981150;28;20053;-77
2023/05/05 05:12:35;;;;;;;7.05;4.22;;;;;;;10.38;100.00;101623.50;4965689;28;20049;-77
2023/05/05 05:15:03;;;;;;;10.40;4.22;;;;;;;10.40;100.00;101623.53;4976643;28;20057;-78
2023/05/05 05:17:31;;;;;;;8.13;3.97;;;;;;;10.36;100.00;101621.69;4997887;28;20038;-78
2023/05/05 05:20:03;;;;;;;10.23;4.43;;;;;;;10.24;100.00;101601.25;4993009;28;20056;-78
2023/05/05 05:22:33;;;;;;;7.07;4.90;;;;;;;10.10;100.00;101588.75;5008888;28;20041;-77
2023/05/05 05:25:01;;;;;;;10.15;5.70;;;;;;;10.01;100.00;101596.50;4994916;28;20049;-77
2023/05/05 05:27:29;;;;;;;10.20;5.68;;;;;;;9.94;100.00;101598.16;4969986;28;20056;-77
2023/05/05 05:29:56;;;;;;;11.07;6.03;;;;;;;9.87;100.00;101611.16;4966061;28;20049;-77
2023/05/05 05:32:25;;;;;;;9.75;5.05;;;;;;;9.76;100.00;101610.97;5000580;28;20046;-77
2023/05/05 05:34:52;;;;;;;9.88;5.40;;;;;;;9.69;100.00;101611.69;4999685;28;20045;-77
2023/05/05 05:37:20;;;;;;;8.30;5.43;;;;;;;9.66;100.00;101609.91;4988150;28;20042;-76
2023/05/05 05:39:52;;;;;;;8.63;5.32;;;;;;;9.64;100.00;101595.84;4987021;28;20045;-77
2023/05/05 05:42:21;;;;;;;11.65;5.57;;;;;;;9.59;100.00;101586.97;4990594;28;20045;-78
2023/05/05 05:44:49;;;;;;;13.70;5.65;;;;;;;9.55;100.00;101603.56;4952225;28;20141;-82
2023/05/05 05:47:17;;;;;;;12.95;5.78;;;;;;;9.54;100.00;101612.28;4998568;28;20053;-82
2023/05/05 05:49:45;;;;;;;15.15;6.15;;;;;;;9.49;100.00;101574.47;4996559;28;20053;-82
2023/05/05 05:52:12;;;;;;;15.27;5.32;;;;;;;9.34;100.00;101547.03;5011606;28;20053;-81
2023/05/05 05:54:39;;;;;;;10.07;5.85;;;;;;;9.26;100.00;101552.97;5031905;28;20065;-82
2023/05/05 05:57:08;;;;;;;7.82;5.32;;;;;;;9.24;100.00;101584.50;4990709;28;20045;-81
2023/05/05 05:59:35;;;;;;;15.48;6.70;;;;;;;9.22;100.00;101598.50;4974106;28;20073;-82
2023/05/05 06:02:03;;;;;;;12.18;6.25;;;;;;;9.20;100.00;101601.06;4942894;28;20074;-81
2023/05/05 06:04:32;;;;;;;7.55;4.90;;;;;;;9.16;100.00;101583.47;4998018;28;20503;-82
2023/05/05 06:06:59;;;;;;;11.80;6.10;;;;;;;9.14;100.00;101579.91;5002577;28;20426;-82
2023/05/05 06:09:27;;;;;;;11.43;6.35;;;;;;;9.18;100.00;101621.19;4977428;28;20622;-83
2023/05/05 06:11:55;;;;;;;14.88;6.95;;;;;;;9.24;100.00;101626.56;5007107;28;20045;-82
2023/05/05 06:14:22;;;;;;;12.82;6.60;;;;;;;9.28;100.00;101635.44;4974921;28;20069;-82
2023/05/05 06:16:51;;;;;;;14.73;6.70;;;;;;;9.29;100.00;101631.97;4961706;28;20050;-82
2023/05/05 06:19:20;;;;;;;;;;;;;;;9.24;100.00;101625.69;4950340;28;20051;-82
2023/05/05 06:21:48;;;;;;;13.20;6.38;;;;;;;9.22;100.00;101643.19;4967694;28;19929;-80
2023/05/05 06:24:15;;;;;;;16.30;6.93;;;;;;;9.24;100.00;101658.13;4986580;28;20058;-83
2023/05/05 06:26:42;;;;;;;13.13;6.75;;;;;;;9.31;100.00;101656.53;4989868;28;20039;-82
2023/05/05 06:29:10;;;;;;;11.50;6.80;;;;;;;9.33;100.00;101653.06;4983321;28;20078;-82
2023/05/05 06:31:38;;;;;;;7.03;5.70;;;;;;;9.41;100.00;101641.84;4939379;28;20069;-82
2023/05/05 06:34:05;;;;;;;13.63;6.32;;;;;;;9.49;100.00;101656.94;5004347;28;20061;-80
2023/05/05 06:36:33;;;;;;;11.65;6.43;;;;;;;9.59;100.00;101658.00;4963774;28;20504;-81
2023/05/05 06:39:00;;;;;;;10.00;6.03;;;;;;;9.67;100.00;101660.78;4987274;28;20054;-81
2023/05/05 06:41:27;;;;;;;10.65;5.82;;;;;;;9.80;100.00;101657.53;4989789;28;20050;-81
2023/05/05 06:43:54;;;;;;;8.43;6.15;;;;;;;9.90;100.00;101653.31;4983485;28;20051;-81
2023/05/05 06:46:22;;;;;;;12.40;6.20;;;;;;;10.01;100.00;101657.06;5018387;28;20055;-81
2023/05/05 06:48:49;;;;;;;12.80;5.03;;;;;;;10.07;100.00;101651.88;4954379;28;20046;-82
2023/05/05 06:51:17;;;;;;;15.77;5.05;;;;;;;10.09;100.00;101646.66;4999224;28;20069;-82
2023/05/05 06:53:44;;;;;;;7.40;5.05;;;;;;;10.09;100.00;101650.19;4983693;28;20050;-81
2023/05/05 06:56:11;;;;;;;7.28;5.35;;;;;;;10.03;100.00;101647.44;4987549;28;20377;-81
2023/05/05 06:58:40;;;;;;;12.75;5.40;;;;;;;10.06;100.00;101642.22;4974808;28;20117;-81
2023/05/05 07:01:08;;;;;;;10.30;5.90;;;;;;;10.08;100.00;101652.81;4977976;28;20097;-82
2023/05/05 07:03:36;;;;;;;10.35;5.70;;;;;;;10.01;100.00;101651.78;4940185;28;20063;-82
2023/05/05 07:06:04;;;;;;;9.98;5.63;;;;;;;10.00;100.00;101649.13;4979112;28;20118;-82
2023/05/05 07:08:32;;;;;;;9.23;6.03;;;;;;;10.03;100.00;101650.06;4972534;28;20038;-81
2023/05/05 07:11:02;;;;;;;12.63;6.18;;;;;;;10.05;100.00;101658.00;4959477;28;20055;-82
2023/05/05 07:13:29;;;;;;;9.40;6.00;;;;;;;10.07;100.00;101665.06;4981012;28;20046;-83
2023/05/05 07:15:59;;;;;;;7.68;5.45;;;;;;;10.10;100.00;101661.63;5024258;28;20052;-83
2023/05/05 07:18:26;;;;;;;11.77;6.30;;;;;;;10.15;100.00;101667.81;5033833;28;20049;-83
2023/05/05 07:20:54;;;;;;;10.75;6.03;;;;;;;10.17;100.00;101673.13;4978805;28;20557;-83
2023/05/05 07:23:21;;;;;;;11.77;5.63;;;;;;;10.21;100.00;101677.59;4980132;28;20042;-82
2023/05/05 07:25:49;;;;;;;8.63;5.68;;;;;;;10.21;100.00;101682.84;5015929;28;20053;-82
2023/05/05 07:28:17;;;;;;;11.05;6.05;;;;;;;10.29;100.00;101681.25;4991601;28;20050;-82
2023/05/05 07:30:44;;;;;;;12.30;5.43;;;;;;;10.34;100.00;101677.88;5013666;28;20049;-82
2023/05/05 07:33:11;;;;;;;7.85;5.18;;;;;;;10.39;100.00;101675.31;5009013;28;20053;-83
2023/05/05 07:35:39;;;;;;;8.10;4.50;;;;;;;10.36;100.00;101671.75;4978044;28;20410;-82
2023/05/05 07:38:06;;;;;;;9.18;5.45;;;;;;;10.44;100.00;101672.78;4976218;28;20057;-82
2023/05/05 07:40:36;;;;;;;10.32;5.30;;;;;;;10.52;100.00;101685.19;5034362;28;20049;-82
2023/05/05 07:43:07;;;;;;;11.60;5.55;;;;;;;10.67;100.00;101681.94;5000557;28;20458;-82
2023/05/05 07:45:34;;;;;;;7.85;5.13;;;;;;;10.81;100.00;101678.63;5000297;28;20060;-81
2023/05/05 07:48:02;;;;;;;8.80;5.40;;;;;;;11.00;100.00;101682.44;5000285;28;20060;-82
2023/05/05 07:50:29;;;;;;;10.63;5.53;;;;;;;11.14;100.00;101688.81;5031071;28;20049;-82
2023/05/05 07:52:59;;;;;;;10.63;5.75;;;;;;;11.27;100.00;101680.19;5003003;28;20479;-83
2023/05/05 07:55:40;;;;;;;9.70;5.03;;;;;;;11.40;100.00;101680.34;4979293;28;20041;-82
2023/05/05 07:58:09;;;;;;;7.53;4.90;;;;;;;11.50;100.00;101677.84;5017023;28;20042;-82
2023/05/05 08:00:37;;;;;;;8.20;4.80;;;;;;;11.66;100.00;101684.22;5000001;28;20056;-82
2023/05/05 08:03:05;;;;;;;9.82;5.45;;;;;;;11.79;100.00;101687.00;5012747;28;20061;-81
2023/05/05 08:05:37;;;;;;;9.02;5.47;;;;;;;12.00;100.00;101667.88;5025843;28;20041;-81
2023/05/05 08:08:05;;;;;;;10.15;5.30;;;;;;;12.15;100.00;101670.66;4975664;28;20045;-83
2023/05/05 08:10:32;;;;;;;8.68;5.53;;;;;;;12.30;100.00;101664.66;5006044;28;20045;-82
2023/05/05 08:12:59;;;;;;;10.68;5.85;;;;;;;12.40;100.00;101685.03;4981895;28;20046;-81
2023/05/05 08:15:27;;;;;;;7.60;5.95;;;;;;;12.52;100.00;101689.53;5014271;28;20061;-83
2023/05/05 08:17:57;;;;;;;9.65;6.05;;;;;;;12.60;100.00;101689.59;5003618;28;20044;-86
2023/05/05 08:20:31;;;;;;;;;;;;;;;12.70;100.00;101693.19;5000171;28;20057;-84
2023/05/05 08:22:59;;;;;;;9.95;5.32;;;;;;;12.81;100.00;101695.03;4979274;28;19933;-84
2023/05/05 08:25:27;;;;;;;11.95;5.85;;;;;;;12.82;100.00;101683.59;5027946;28;20053;-86
2023/05/05 08:27:54;;;;;;;9.00;5.75;;;;;;;12.94;100.00;101676.63;5032956;28;20100;-84
2023/05/05 08:30:22;;;;;;;9.15;5.32;;;;;;;13.01;100.00;101679.31;5027271;28;20510;-83
2023/05/05 08:32:50;;;;;;;10.05;6.00;;;;;;;13.14;100.00;101685.56;4991670;28;20068;-82
2023/05/05 08:35:17;;;;;;;10.35;5.13;;;;;;;13.23;100.00;101679.44;5016596;28;20048;-84
2023/05/05 08:37:45;;;;;;;9.40;5.45;;;;;;;13.26;100.00;101680.34;5008787;28;20053;-85
2023/05/05 08:40:13;;;;;;;9.85;5.53;;;;;;;13.23;100.00;101687.38;4997204;28;20056;-82
2023/05/05 08:42:41;;;;;;;8.50;5.57;;;;;;;13.36;100.00;101677.78;5004411;28;20064;-81
2023/05/05 08:45:09;;;;;;;11.88;7.15;;;;;;;13.45;100.00;101672.53;4999726;28;20049;-83
2023/05/05 08:47:38;;;;;;;9.75;5.88;;;;;;;13.50;100.00;101670.78;4989008;28;20064;-81
2023/05/05 08:50:09;;;;;;;11.88;6.72;;;;;;;13.48;100.00;101672.56;5011007;28;20049;-82
2023/05/05 08:52:45;;;;;;;8.32;5.90;;;;;;;13.58;100.00;101668.16;4989711;28;20056;-80
2023/05/05 08:55:25;;;;;;;14.77;6.45;;;;;;;13.71;100.00;101667.34;4969540;28;20061;-81
2023/05/05 08:57:56;;;;;;;9.32;5.93;;;;;;;13.78;100.00;101662.91;4999215;28;20077;-82
2023/05/05 09:00:25;;;;;;;16.83;6.63;;;;;;;13.84;100.00;101657.66;5015117;28;20057;-82
2023/05/05 09:02:59;;;;;;;10.30;6.35;;;;;;;13.89;100.00;101668.25;4999661;28;20050;-83
2023/05/05 09:05:27;;;;;;;8.68;6.18;;;;;;;13.97;100.00;101656.81;4994630;28;20053;-81
2023/05/05 09:07:55;;;;;;;10.40;6.03;;;;;;;14.10;100.00;101655.06;5018306;28;20049;-83
2023/05/05 09:10:24;;;;;;;10.55;6.78;;;;;;;14.14;100.00;101655.94;4968924;28;20148;-82
2023/05/05 09:12:56;;;;;;;9.13;6.20;;;;;;;14.21;100.00;101655.06;5030659;28;20556;-83
2023/05/05 09:15:24;;;;;;;9.35;6.25;;;;;;;14.32;100.00;101660.38;4993133;28;20061;-83
2023/05/05 09:17:51;;;;;;;11.18;6.78;;;;;;;14.45;100.00;101664.81;5000439;28;20061;-83
2023/05/05 09:20:18;;;;;;;12.15;7.22;;;;;;;14.48;100.00;101662.16;4971593;28;20041;-82
2023/05/05 09:22:47;;;;;;;11.93;7.00;;;;;;;14.53;100.00;101667.47;4985979;28;20061;-83
2023/05/05 09:25:16;;;;;;;10.38;7.20;;;;;;;14.67;100.00;101665.72;5009418;28;20652;-84
2023/05/05 09:27:48;;;;;;;9.82;6.90;;;;;;;14.82;100.00;101660.41;5008305;28;20053;-83
2023/05/05 09:30:22;;;;;;;9.70;6.95;;;;;;;14.96;100.00;101667.47;4981518;28;20522;-83
2023/05/05 09:32:51;;;;;;;9.23;6.82;;;;;;;15.09;100.00;101663.88;5011932;28;20046;-83
2023/05/05 09:35:21;;;;;;;12.95;7.10;;;;;;;15.23;100.00;101663.84;5005797;28;20049;-83
2023/05/05 09:37:48;;;;;;;12.27;7.72;;;;;;;15.35;100.00;101654.97;5010708;28;20049;-84
2023/05/05 09:40:17;;;;;;;10.35;7.78;;;;;;;15.43;100.00;101666.44;5036082;28;20056;-85
2023/05/05 09:42:46;;;;;;;13.32;7.60;;;;;;;15.55;100.00;101669.03;4988770;28;20048;-83
2023/05/05 09:45:18;;;;;;;;;;;;;;;15.70;100.00;101664.53;4984341;28;20050;-82
2023/05/05 09:47:47;;;;;;;10.10;7.25;;;;;;;15.72;100.00;101663.63;5009975;28;19921;-83
2023/05/05 09:50:19;;;;;;;11.88;7.35;;;;;;;15.79;100.00;101668.06;5004394;28;20073;-82
2023/05/05 09:53:00;;;;;;;12.68;7.60;;;;;;;15.90;100.00;101673.34;4991596;28;20628;-83
2023/05/05 09:55:31;;;;;;;10.95;7.60;;;;;;;16.00;100.00;101681.25;5032816;28;20049;-81
2023/05/05 09:58:18;;;;;;;13.60;8.38;;;;;;;16.09;100.00;101689.19;4969511;28;20052;-82
2023/05/05 10:00:46;;;;;;;11.82;7.78;;;;;;;16.18;100.00;101686.44;5009558;28;20057;-82
2023/05/05 10:03:15;;;;;;;11.20;7.68;;;;;;;16.25;100.00;101680.19;4999816;28;20065;-84
2023/05/05 10:06:06;;;;;;;14.27;8.50;;;;;;;16.29;100.00;101681.94;5009769;28;20518;-85
2023/05/05 10:08:34;;;;;;;12.52;8.23;;;;;;;16.33;100.00;101686.34;5010904;28;20057;-82
2023/05/05 10:11:05;;;;;;;15.23;7.78;;;;;;;16.23;100.00;101675.78;4978747;28;20061;-80
2023/05/05 10:13:41;;;;;;;11.20;8.55;;;;;;;16.27;100.00;101678.41;4998733;28;20045;-81
2023/05/05 10:16:12;;;;;;;11.25;8.50;;;;;;;16.33;100.00;101666.81;4994602;28;20407;-82
2023/05/05 10:18:44;;;;;;;;;;;;;;;16.41;100.00;101661.44;4992901;28;20061;-80
2023/05/05 10:21:15;;;;;;;9.15;8.07;;;;;;;16.43;100.00;101668.53;5011036;28;19928;-80
2023/05/05 10:23:48;;;;;;;17.02;9.55;;;;;;;16.51;100.00;101661.38;5012879;28;20041;-80
2023/05/05 10:26:16;;;;;;;9.93;7.38;;;;;;;16.53;100.00;101667.56;5006569;28;20057;-81
2023/05/05 10:28:49;;;;;;;11.93;7.88;;;;;;;16.55;100.00;101665.75;4975071;28;20062;-81
2023/05/05 10:31:33;;;;;;;12.48;7.53;;;;;;;16.55;100.00;101670.22;5015479;28;20053;-80
2023/05/05 10:34:08;;;;;;;9.63;7.80;;;;;;;16.66;100.00;101670.13;4998550;28;20050;-81
2023/05/05 10:36:38;;;;;;;14.55;6.93;;;;;;;16.71;100.00;101665.63;5016019;28;20053;-80
2023/05/05 10:39:09;;;;;;;10.85;7.75;;;;;;;16.77;100.00;101657.59;5043956;28;20064;-81
2023/05/05 10:41:37;;;;;;;11.48;8.20;;;;;;;16.67;100.00;101662.13;4995098;28;20057;-81
2023/05/05 10:44:05;;;;;;;11.63;8.30;;;;;;;16.62;100.00;101660.41;4954354;28;20042;-81
2023/05/05 10:46:33;;;;;;;12.75;8.30;;;;;;;16.57;100.00;101655.09;5001924;28;20056;-80
2023/05/05 10:49:27;;;;;;;9.75;7.65;;;;;;;16.47;100.00;101650.78;4999344;28;20054;-82
2023/05/05 10:51:58;;;;;;;12.45;7.53;;;;;;;16.29;100.00;101652.66;5018222;28;20048;-81
2023/05/05 10:54:44;;;;;;;10.23;8.73;;;;;;;16.28;100.00;101652.72;5010986;28;20041;-80
2023/05/05 10:57:15;;;;;;;14.25;8.48;;;;;;;16.28;100.00;101640.28;5005271;28;20068;-82
2023/05/05 10:59:46;;;;;;;13.02;8.55;;;;;;;16.32;100.00;101649.13;5001871;28;20068;-82
2023/05/05 11:02:17;;;;;;;13.07;9.07;;;;;;;16.32;100.00;101644.69;5012730;28;20049;-80
2023/05/05 11:05:05;;;;;;;10.60;8.88;;;;;;;16.33;100.00;101641.13;5036305;28;20054;-81
2023/05/05 11:07:33;;;;;;;11.63;8.77;;;;;;;16.37;100.00;101642.88;5034025;28;20049;-82
2023/05/05 11:10:03;;;;;;;15.55;9.50;;;;;;;16.36;100.00;101643.75;5011171;28;20045;-81
2023/05/05 11:12:32;;;;;;;11.75;9.38;;;;;;;16.23;100.00;101647.41;5003938;28;20406;-82
2023/05/05 11:15:39;;;;;;;10.32;9.07;;;;;;;16.28;100.00;101642.94;5028645;28;20064;-84
2023/05/05 11:18:06;;;;;;;16.08;10.13;;;;;;;16.46;100.00;101633.03;5037555;28;20060;-84
2023/05/05 11:20:35;;;;;;;10.93;8.98;;;;;;;16.69;100.00;101624.84;4981152;28;20053;-84
2023/05/05 11:23:02;;;;;;;12.80;9.55;;;;;;;16.80;100.00;101630.94;5018193;28;20577;-84
2023/05/05 11:25:54;;;;;;;18.65;9.60;;;;;;;16.84;100.00;101622.09;4987932;28;20072;-84
2023/05/05 11:28:31;;;;;;;13.90;10.43;;;;;;;16.84;100.00;101615.84;5011853;28;20058;-84
2023/05/05 11:30:59;;;;;;;14.18;9.60;;;;;;;16.82;100.00;101623.84;5004075;28;20064;-84
2023/05/05 11:33:28;;;;;;;16.98;9.82;;;;;;;16.79;100.00;101634.50;4990408;28;20056;-84